Latest Coastal Weather Observations for Cairns

IDQ60701

Issued at 8:02 pm EST Friday 30 September 2016 (issued every 10 minutes, with the page automatically refreshed every 10 minutes)

About coastal observations | Map of coastal stations | Coastal observations for QLD | Marine services | Other Formats
Station Details ID: 031011 Name: CAIRNS AERO Lat: -16.87 Lon: 145.75 Height: 2.22 m
Data from the previous 72 hours. | See also: Recent months at Cairns
Date/Time
EST
Temp
°C
Wind Pressure Rain since
9am
mm
Weather Cloud Vis
km
Sea
Height
m
Swell
Dir  Spd
kts
Gust
kts
hPa Trend Height
m
Period
s
Dir
30/07:30pm 26.2 CALM 0 0 1009.9 - 0.0 - Mostly clear 10 - - - -
30/07:00pm 26.5 N 4 6 1009.7 - 0.0 - Mostly clear 10 - - - -
30/06:30pm 26.5 N 7 9 1009.3 - 0.0 - Mostly clear 10 - - - -
30/06:00pm 26.7 N 8 10 1009.3 R 0.0 - Cloudy 10 - - - -
30/05:30pm 27.2 N 8 11 1009.0 - 0.0 - Mostly clear 10 - - - -
30/05:00pm 27.5 N 7 12 1008.4 - 0.0 - Mostly clear 10 - - - -
30/04:30pm 27.4 N 8 11 1008.3 - 0.0 - Mostly clear 10 - - - -
30/04:00pm 27.9 N 10 13 1008.3 - 0.0 - Mostly clear 10 - - - -
30/03:30pm 28.5 N 9 12 1008.2 - 0.0 - Mostly clear 10 - - - -
30/03:00pm 28.6 N 10 14 1008.2 R 0.0 - Mostly clear 10 - - - -
30/02:30pm 29.3 N 10 14 1008.4 - 0.0 - Mostly clear 10 - - - -
30/02:00pm 28.0 N 10 13 1008.6 - 0.0 - Mostly clear 10 - - - -
30/01:30pm 28.9 NNE 11 16 1008.9 - 0.0 Showers Mostly clear 10 - - - -
30/01:00pm 28.4 N 10 14 1009.2 - 0.0 - Mostly clear 10 - - - -
30/12:30pm 29.0 N 12 16 1009.8 - 0.0 - Mostly clear 10 - - - -
30/12:00pm 28.4 N 11 15 1010.2 R 0.0 - Mostly clear 10 - - - -
30/11:30am 29.2 N 11 17 1010.6 - 0.0 - Mostly clear 10 - - - -
30/11:00am 29.1 N 13 17 1010.9 - 0.0 - Mostly clear 10 - - - -
30/10:30am 29.3 N 12 15 1010.9 - 0.0 - Mostly clear 10 - - - -
30/10:00am 28.5 N 13 16 1011.0 - 0.0 - Mostly clear 10 - - - -
30/09:30am 28.8 N 11 14 1011.1 - 0.0 - Mostly clear 10 - - - -
30/09:00am 29.0 NW 4 8 1011.1 F 0.0 - Mostly clear 10 - - - -
30/08:30am 27.5 W 4 6 1011.2 - 0.0 - Mostly clear 10 - - - -
30/08:00am 27.1 NW 5 7 1011.0 - 0.0 - Mostly clear 10 - - - -
30/07:30am 25.7 NNW 4 6 1010.8 - 0.0 - Mostly clear 10 - - - -
30/07:00am 25.2 W 5 7 1010.6 - 0.0 - Mostly clear 10 - - - -
30/06:30am 24.8 W 6 7 1010.3 - 0.0 - Mostly clear 10 - - - -
30/06:00am 24.5 WNW 5 7 1009.9 F 0.0 - Mostly clear 10 - - - -
30/05:30am 24.5 WNW 5 6 1009.7 - 0.0 - Mostly clear 10 - - - -
30/05:00am 24.6 WNW 5 7 1009.6 - 0.0 - Mostly clear 10 - - - -
30/04:30am 24.6 WNW 6 7 1009.4 - 0.0 - Mostly clear 10 - - - -
30/04:00am 24.4 WNW 5 6 1009.3 - 0.0 - Mostly clear 10 - - - -
30/03:30am 24.8 CALM 0 0 1009.4 - 0.0 Rain Mostly clear 10 - - - -
30/03:00am 25.2 CALM 0 0 1009.6 R 0.0 Rain Mostly cloudy 10 - - - -
30/02:30am 25.5 W 3 4 1009.9 - 0.0 - Mostly clear 10 - - - -
30/02:00am 26.0 NW 5 6 1009.9 - 0.0 - Mostly clear 10 - - - -
30/01:30am 26.0 NNW 9 14 1009.8 - 0.0 - Mostly clear 10 - - - -
30/01:00am 26.0 NW 7 10 1010.1 - 0.0 - Partly cloudy 10 - - - -
30/12:30am 25.8 NNW 7 10 1010.5 - 0.0 - Partly cloudy 10 - - - -
30/12:00am 25.5 NNW 6 9 1010.8 R 0.0 Rain Cloudy 10 - - - -
 
Date/Time
EST
Temp
°C
Wind Pressure Rain since
9am
mm
Weather Cloud Vis
km
Sea
Height
m
Swell
Dir  Spd
kts
Gust
kts
hPa Trend Height
m
Period
s
Dir
29/11:30pm 26.3 NNW 8 12 1011.0 - 0.0 - Partly cloudy 10 - - - -
29/11:00pm 26.3 NNW 8 10 1011.0 - 0.0 - Partly cloudy 10 - - - -
29/10:30pm 26.3 N 9 12 1011.1 - 0.0 - Mostly clear 10 - - - -
29/10:00pm 26.4 N 8 12 1011.1 - 0.0 - Partly cloudy 10 - - - -
29/09:30pm 26.4 N 8 11 1010.9 - 0.0 - Partly cloudy 10 - - - -
29/09:00pm 26.3 NNW 7 11 1010.7 R 0.0 - Cloudy 10 - - - -
29/08:30pm 26.2 N 8 10 1010.4 - 0.0 - Mostly clear 10 - - - -
29/08:00pm 26.1 NNW 8 10 1009.8 - 0.0 - Mostly clear 10 - - - -
29/07:30pm 26.0 NNW 7 10 1009.3 - 0.0 - Mostly clear 10 - - - -
29/07:00pm 26.4 NNW 8 11 1009.0 - 0.0 - Partly cloudy 10 - - - -
29/06:30pm 26.5 NNW 8 10 1008.5 - 0.0 - Partly cloudy 10 - - - -
29/06:00pm 26.6 NNW 9 13 1008.2 F 0.0 - Cloudy 10 - - - -
29/05:30pm 26.8 N 10 13 1008.0 - 0.0 - Partly cloudy 10 - - - -
29/05:00pm 27.2 N 9 14 1007.8 - 0.0 - Partly cloudy 10 - - - -
29/04:30pm 27.2 N 11 15 1007.7 - 0.0 - Partly cloudy 10 - - - -
29/04:00pm 28.0 N 12 16 1007.5 - 0.0 - Partly cloudy 10 - - - -
29/03:30pm 28.1 N 12 17 1007.4 - 0.0 - Mostly clear 10 - - - -
29/03:00pm 28.3 N 11 17 1007.7 F 0.0 - Partly cloudy 10 - - - -
29/02:30pm 28.5 N 11 17 1007.9 - 0.0 - Mostly clear 10 - - - -
29/02:00pm 29.0 N 12 16 1008.2 - 0.0 - Mostly clear 10 - - - -
29/01:30pm 29.3 N 12 16 1008.7 - 0.0 - Mostly clear 10 - - - -
29/01:00pm 28.3 N 12 16 1009.2 - 0.0 - Mostly clear 10 - - - -
29/12:30pm 28.9 N 12 17 1009.8 - 0.0 - Mostly clear 10 - - - -
29/12:00pm 29.4 N 11 16 1010.4 F 0.0 - Mostly clear 10 - - - -
29/11:30am 28.5 N 12 16 1011.0 - 0.0 - Mostly clear 10 - - - -
29/11:00am 27.9 N 10 14 1011.4 - 0.0 - Mostly clear 10 - - - -
29/10:30am 27.1 N 8 11 1011.6 - 0.0 - Partly cloudy 10 - - - -
29/10:00am 27.8 N 10 14 1011.8 - 0.0 - Partly cloudy 10 - - - -
29/09:30am 27.0 N 9 13 1011.9 - 0.0 - Partly cloudy 10 - - - -
29/09:00am 27.4 N 8 11 1011.9 F 0.0 - Cloudy 10 - - - -
29/08:30am 26.1 NW 4 6 1012.1 - 0.0 - Partly cloudy 10 - - - -
29/08:00am 26.6 NNE 5 7 1012.0 - 0.0 - Partly cloudy 10 - - - -
29/07:30am 25.8 CALM 0 4 1011.7 - 0.0 - Mostly clear 10 - - - -
29/07:00am 25.4 WNW 4 5 1011.2 - 0.0 - Mostly clear 10 - - - -
29/06:30am 24.5 W 3 5 1010.8 - 0.0 - Partly cloudy 10 - - - -
29/06:00am 24.1 CALM 0 3 1010.5 F 0.0 - Cloudy 10 - - - -
29/05:30am 23.3 CALM 0 0 1010.4 - 0.0 - Partly cloudy 10 - - - -
29/05:00am 24.9 WNW 3 4 1010.4 - 0.0 - Mostly clear 10 - - - -
29/04:30am 25.2 W 3 5 1010.3 - 0.0 - Mostly clear 10 - - - -
29/04:00am 24.9 WSW 3 5 1010.1 - 0.0 - Partly cloudy 10 - - - -
29/03:30am 24.4 W 4 5 1009.9 - 0.0 - Partly cloudy 10 - - - -
29/03:00am 24.3 WNW 3 4 1010.0 F 0.0 - Mostly cloudy 10 - - - -
29/02:30am 24.5 W 2 5 1010.5 - 0.0 - Partly cloudy 10 - - - -
29/02:00am 24.3 WNW 1 5 1010.8 - 0.0 - Partly cloudy 10 - - - -
29/01:30am 24.3 WNW 3 6 1011.4 - 0.0 - Partly cloudy 10 - - - -
29/01:00am 24.5 N 5 7 1011.8 - 0.0 - Partly cloudy 10 - - - -
29/12:30am 25.5 N 6 9 1012.1 - 0.0 - Mostly clear 10 - - - -
29/12:00am 25.8 NNE 6 9 1012.5 R 0.0 - Cloudy 10 - - - -
 
Date/Time
EST
Temp
°C
Wind Pressure Rain since
9am
mm
Weather Cloud Vis
km
Sea
Height
m
Swell
Dir  Spd
kts
Gust
kts
hPa Trend Height
m
Period
s
Dir
28/11:30pm 25.8 NNE 6 8 1012.6 - 0.0 - Mostly clear 10 - - - -
28/11:00pm 25.6 NNE 6 8 1012.8 - 0.0 - Mostly clear 10 - - - -
28/10:30pm 25.7 ENE 7 10 1012.9 - 0.0 Showers Partly cloudy 10 - - - -
28/10:00pm 25.9 E 5 6 1012.6 - 0.0 - Mostly clear 10 - - - -
28/09:30pm 25.7 E 6 8 1012.3 - 0.0 - Mostly clear 10 - - - -
28/09:00pm 25.6 ESE 6 7 1011.9 F 0.0 - Mostly clear 10 - - - -
28/08:30pm 25.8 ESE 7 9 1011.7 - 0.0 - Mostly clear 10 - - - -
28/08:00pm 25.9 ESE 7 9 1011.5 - 0.0 - Mostly clear 10 - - - -
28/07:30pm 26.0 E 6 8 1011.3 - 0.0 - Mostly clear 10 - - - -
28/07:00pm 26.1 ENE 7 10 1011.1 - 0.0 - Mostly clear 10 - - - -
28/06:30pm 26.2 ENE 8 11 1011.0 - 0.0 - Mostly clear 10 - - - -
28/06:00pm 26.4 ENE 9 13 1010.8 F 0.0 - Partly cloudy 10 - - - -
28/05:30pm 27.0 ENE 9 12 1010.6 - 0.0 - Mostly clear 10 - - - -
28/05:00pm 27.5 ENE 10 14 1010.3 - 0.0 - Mostly clear 10 - - - -
28/04:30pm 28.2 NE 10 14 1010.1 - 0.0 - Mostly clear 10 - - - -
28/04:00pm 28.3 NE 10 14 1010.1 - 0.0 - Mostly clear 10 - - - -
28/03:30pm 28.6 ENE 10 13 1010.1 - 0.0 - Mostly clear 10 - - - -
28/03:00pm 29.1 NE 10 14 1010.3 F 0.0 - Mostly clear 10 - - - -
28/02:30pm 29.1 NE 10 15 1010.6 - 0.0 - Mostly clear 10 - - - -
28/02:00pm 28.8 NE 11 20 1010.8 - 0.0 - Mostly clear 10 - - - -
28/01:30pm 29.4 NE 11 15 1011.1 - 0.0 - Mostly clear 10 - - - -
28/01:00pm 29.1 NE 10 14 1011.5 - 0.0 - Mostly clear 10 - - - -
28/12:30pm 28.7 NE 10 16 1012.0 - 0.0 - Mostly clear 10 - - - -
28/12:00pm 29.2 NE 9 15 1012.6 F 0.0 - Mostly clear 10 - - - -
28/11:30am 29.5 NE 9 16 1013.1 - 0.0 - Mostly clear 10 - - - -
28/11:00am 28.7 NE 8 11 1013.6 - 0.0 - Mostly clear 10 - - - -
28/10:30am 28.4 NE 8 11 1014.0 - 0.0 - Mostly clear 10 - - - -
28/10:00am 28.6 NE 8 10 1014.2 - 0.0 - Mostly clear 10 - - - -
28/09:30am 29.3 ENE 6 8 1014.1 - 0.0 - Mostly clear 10 - - - -
28/09:00am 27.9 SE 4 7 1014.0 F 0.0 - Mostly clear 10 - - - -
28/08:30am 26.9 S 5 6 1013.9 - 0.0 - Mostly clear 10 - - - -
28/08:00am 27.0 SE 7 8 1013.8 - 0.0 - Mostly clear 10 - - - -
28/07:30am 25.6 SE 6 8 1013.5 - 0.0 - Mostly clear 10 - - - -
28/07:00am 23.9 W 1 3 1013.0 - 0.0 - Mostly clear 10 - - - -
28/06:30am 23.1 SSE 3 5 1012.7 - 0.0 - Mostly clear 10 - - - -
28/06:00am 22.9 SSE 6 8 1012.5 R 0.0 - Partly cloudy 10 - - - -
28/05:30am 22.2 CALM 0 0 1012.3 - 0.0 - Mostly clear 10 - - - -
28/05:00am 22.6 W 2 5 1011.8 - 0.0 - Mostly clear 10 - - - -
28/04:30am 23.3 SE 7 9 1011.7 - 0.0 - Mostly clear 10 - - - -
28/04:00am 23.4 SSE 3 5 1011.6 - 0.0 - Mostly clear 10 - - - -
28/03:30am 23.5 SSE 6 9 1011.6 - 0.0 - Mostly clear 10 - - - -
28/03:00am 23.5 SW 2 7 1011.6 F 0.0 - Mostly clear 10 - - - -
28/02:30am 24.0 SE 6 8 1011.6 - 0.0 - Mostly clear 10 - - - -
28/02:00am 24.2 SSE 7 9 1012.0 - 0.0 - Mostly clear 10 - - - -
28/01:30am 22.9 SW 1 4 1012.3 - 0.0 - Mostly clear 10 - - - -
28/01:00am 22.8 CALM 0 0 1012.7 - 0.0 - Mostly clear 10 - - - -
28/12:30am 22.8 CALM 0 0 1013.0 - 0.0 - Mostly clear 10 - - - -
28/12:00am 23.3 CALM 0 0 1013.3 R 0.0 - Mostly clear 10 - - - -
 
Date/Time
EST
Temp
°C
Wind Pressure Rain since
9am
mm
Weather Cloud Vis
km
Sea
Height
m
Swell
Dir  Spd
kts
Gust
kts
hPa Trend Height
m
Period
s
Dir
27/11:30pm 23.6 CALM 0 0 1013.5 - 0.0 - Mostly clear 10 - - - -
27/11:00pm 23.9 CALM 0 0 1013.6 - 0.0 - Mostly clear 10 - - - -
27/10:30pm 24.3 CALM 0 0 1013.5 - 0.0 - Mostly clear 10 - - - -
27/10:00pm 25.1 S 4 6 1013.4 - 0.0 - Mostly clear 10 - - - -
27/09:30pm 25.2 S 5 7 1013.4 - 0.0 - Mostly clear 10 - - - -
27/09:00pm 25.1 SSE 5 7 1013.1 R 0.0 - Mostly clear 10 - - - -
27/08:30pm 25.3 S 5 7 1012.8 - 0.0 - Mostly clear 10 - - - -

Other Formats:

Comma delimited format used in spreadsheet applications
http://www.bom.gov.au/fwo/IDQ60701/IDQ60701.94287.axf

JavaScript Object Notation format (JSON) in row-major order
http://www.bom.gov.au/fwo/IDQ60701/IDQ60701.94287.json